createdAt,value
2018-05-09T00:00:35.786Z,76.52
2018-05-09T00:02:28.788Z,75.65
2018-05-09T00:03:28.843Z,75.56
2018-05-09T00:05:21.844Z,75.27
2018-05-09T00:06:21.901Z,76.23
2018-05-09T00:08:14.908Z,76.10
2018-05-09T00:09:14.957Z,76.42
2018-05-09T00:11:07.962Z,76.29
2018-05-09T00:12:08.017Z,76.57
2018-05-09T00:14:01.020Z,76.10
2018-05-09T00:15:01.078Z,76.19
2018-05-09T00:16:54.067Z,76.00
2018-05-09T00:17:54.130Z,76.00
2018-05-09T00:19:47.132Z,76.06
2018-05-09T00:20:47.190Z,76.64
2018-05-09T00:22:40.193Z,77.02
2018-05-09T00:23:40.261Z,76.35
2018-05-09T00:25:33.273Z,76.10
2018-05-09T00:26:33.330Z,75.90
2018-05-09T00:28:26.329Z,76.00
2018-05-09T00:29:26.401Z,76.19
2018-05-09T00:31:19.407Z,76.39
2018-05-09T00:32:19.461Z,75.81
2018-05-09T00:34:12.478Z,76.86
2018-05-09T00:35:12.517Z,77.02
2018-05-09T00:37:05.515Z,76.82
2018-05-09T00:38:05.574Z,76.82
2018-05-09T00:39:58.576Z,77.02
2018-05-09T00:40:58.636Z,76.54
2018-05-09T00:42:51.625Z,76.73
2018-05-09T00:43:51.688Z,77.02
2018-05-09T00:45:44.688Z,76.73
2018-05-09T00:46:44.745Z,76.64
2018-05-09T00:48:37.746Z,76.73
2018-05-09T00:49:37.803Z,76.73
2018-05-09T00:51:30.807Z,76.50
2018-05-09T00:52:30.863Z,76.89
2018-05-09T00:54:23.876Z,76.60
2018-05-09T00:55:23.919Z,76.31
2018-05-09T00:57:16.915Z,76.60
2018-05-09T00:58:16.975Z,77.17
2018-05-09T01:00:09.977Z,76.98
2018-05-09T01:01:10.029Z,76.40
2018-05-09T01:03:03.027Z,76.69
2018-05-09T01:04:03.087Z,76.98
2018-05-09T01:05:56.090Z,77.08
2018-05-09T01:06:56.146Z,76.31
2018-05-09T01:08:49.142Z,76.79
2018-05-09T01:09:49.203Z,77.26
2018-05-09T01:11:42.206Z,76.69
2018-05-09T01:12:42.261Z,76.98
2018-05-09T01:14:35.281Z,77.08
2018-05-09T01:15:35.323Z,76.79
2018-05-09T01:17:28.314Z,77.46
2018-05-09T01:18:28.377Z,77.46
2018-05-09T01:20:21.379Z,77.46
2018-05-09T01:21:21.434Z,77.26
2018-05-09T01:23:14.425Z,77.04
2018-05-09T01:24:14.491Z,77.04
2018-05-09T01:26:07.495Z,77.23
2018-05-09T01:27:07.555Z,77.80
2018-05-09T01:29:00.548Z,77.04
2018-05-09T01:30:00.606Z,76.94
2018-05-09T01:31:53.605Z,76.94
2018-05-09T01:32:53.662Z,77.04
2018-05-09T01:34:46.660Z,77.61
2018-05-09T01:35:46.716Z,77.51
2018-05-09T01:37:39.713Z,77.42
2018-05-09T01:38:39.774Z,77.42
2018-05-09T01:40:32.772Z,77.13
2018-05-09T01:41:32.831Z,77.33
2018-05-09T01:43:25.825Z,77.42
2018-05-09T01:44:25.885Z,77.99
2018-05-09T01:46:18.883Z,77.51
2018-05-09T01:47:18.941Z,77.33
2018-05-09T01:49:11.930Z,77.13
2018-05-09T01:50:12.018Z,77.90
2018-05-09T01:52:04.992Z,77.61
2018-05-09T01:53:05.052Z,77.61
2018-05-09T01:54:58.073Z,78.19
2018-05-09T01:55:58.112Z,77.70
2018-05-09T01:57:51.100Z,77.33
2018-05-09T01:58:51.164Z,77.70
2018-05-09T02:00:44.166Z,77.80
2018-05-09T02:01:44.223Z,77.70
2018-05-09T02:03:37.220Z,77.61
2018-05-09T02:04:37.277Z,77.70
2018-05-09T02:06:30.278Z,77.86
2018-05-09T02:07:30.333Z,77.99
2018-05-09T02:09:23.329Z,77.99
2018-05-09T02:10:23.390Z,77.70
2018-05-09T02:12:16.386Z,77.67
2018-05-09T02:13:16.441Z,78.47
2018-05-09T02:15:09.452Z,77.61
2018-05-09T02:16:09.496Z,77.86
2018-05-09T02:18:02.996Z,77.95
2018-05-09T02:19:03.057Z,77.86
2018-05-09T02:20:56.062Z,77.86
2018-05-09T02:21:56.113Z,77.95
2018-05-09T02:23:49.113Z,77.67
2018-05-09T02:24:49.169Z,77.95
2018-05-09T02:26:42.169Z,78.53
2018-05-09T02:27:42.222Z,77.76
2018-05-09T02:29:35.218Z,77.76
2018-05-09T02:30:35.276Z,77.86
2018-05-09T02:32:28.283Z,77.86
2018-05-09T02:33:28.330Z,77.67
2018-05-09T02:35:21.333Z,77.86
2018-05-09T02:36:21.384Z,77.86
2018-05-09T02:38:14.377Z,77.86
2018-05-09T02:39:14.440Z,77.76
2018-05-09T02:41:07.437Z,77.76
2018-05-09T02:42:07.493Z,77.57
2018-05-09T02:44:00.486Z,77.57
2018-05-09T02:45:00.544Z,78.14
2018-05-09T02:46:53.549Z,78.63
2018-05-09T02:47:53.600Z,77.86
2018-05-09T02:49:46.656Z,77.76
2018-05-09T02:50:46.659Z,78.53
2018-05-09T02:52:39.660Z,78.63
2018-05-09T02:53:39.706Z,78.34
2018-05-09T02:55:32.723Z,78.63
2018-05-09T02:56:32.760Z,77.86
2018-05-09T02:58:25.750Z,78.34
2018-05-09T02:59:25.814Z,78.05
2018-05-09T03:01:18.812Z,77.95
2018-05-09T03:02:18.889Z,78.05
2018-05-09T03:04:11.860Z,77.95
2018-05-09T03:05:11.928Z,78.34
2018-05-09T03:07:04.930Z,78.14
2018-05-09T03:08:04.983Z,78.34
2018-05-09T03:09:57.979Z,78.05
2018-05-09T03:10:58.042Z,78.43
2018-05-09T03:12:51.053Z,77.86
2018-05-09T03:13:51.108Z,78.34
2018-05-09T03:15:44.129Z,78.63
2018-05-09T03:16:44.166Z,78.53
2018-05-09T03:18:37.664Z,77.92
2018-05-09T03:19:37.722Z,78.58
2018-05-09T03:21:30.726Z,77.72
2018-05-09T03:22:30.780Z,77.72
2018-05-09T03:24:23.770Z,78.30
2018-05-09T03:25:23.839Z,77.92
2018-05-09T03:27:16.838Z,77.82
2018-05-09T03:28:16.894Z,78.58
2018-05-09T03:30:09.883Z,78.30
2018-05-09T03:31:09.951Z,78.20
2018-05-09T03:33:02.950Z,78.39
2018-05-09T03:34:03.005Z,78.01
2018-05-09T03:35:56.022Z,78.49
2018-05-09T03:36:56.073Z,78.49
2018-05-09T03:38:49.060Z,78.53
2018-05-09T03:39:49.124Z,78.53
2018-05-09T03:41:42.134Z,78.39
2018-05-09T03:42:42.187Z,78.20
2018-05-09T03:44:35.178Z,78.30
2018-05-09T03:45:35.239Z,78.20
2018-05-09T03:47:28.236Z,77.92
2018-05-09T03:48:28.293Z,77.53
2018-05-09T03:50:21.292Z,77.82
2018-05-09T03:51:21.356Z,77.92
2018-05-09T03:53:14.370Z,77.63
2018-05-09T03:54:14.408Z,78.58
2018-05-09T03:56:07.424Z,78.30
2018-05-09T03:57:07.468Z,77.53
2018-05-09T03:59:00.463Z,77.92
2018-05-09T04:00:00.524Z,78.20
2018-05-09T04:01:53.520Z,78.20
2018-05-09T04:02:53.577Z,77.82
2018-05-09T04:04:46.571Z,77.72
2018-05-09T04:05:46.642Z,77.53
2018-05-09T04:07:39.635Z,78.11
2018-05-09T04:08:39.690Z,77.72
2018-05-09T04:10:32.688Z,77.92
2018-05-09T04:11:32.754Z,77.82
2018-05-09T04:13:25.757Z,77.72
2018-05-09T04:14:25.811Z,77.92
2018-05-09T04:16:18.820Z,78.20
2018-05-09T04:17:18.878Z,77.63
2018-05-09T04:19:11.857Z,77.63
2018-05-09T04:20:11.921Z,77.92
2018-05-09T04:22:04.926Z,77.92
2018-05-09T04:23:04.982Z,77.92
2018-05-09T04:24:57.977Z,78.20
2018-05-09T04:25:58.038Z,77.82
2018-05-09T04:27:51.036Z,77.72
2018-05-09T04:28:51.089Z,77.92
2018-05-09T04:30:44.091Z,78.01
2018-05-09T04:31:44.157Z,77.72
2018-05-09T04:33:37.152Z,77.92
2018-05-09T04:34:37.213Z,78.30
2018-05-09T04:36:30.219Z,78.11
2018-05-09T04:37:30.262Z,78.01
2018-05-09T04:39:23.262Z,77.72
2018-05-09T04:40:23.330Z,77.38
2018-05-09T04:42:16.333Z,77.38
2018-05-09T04:43:16.389Z,77.57
2018-05-09T04:45:09.378Z,77.76
2018-05-09T04:46:09.439Z,77.38
2018-05-09T04:48:02.441Z,77.95
2018-05-09T04:49:02.497Z,77.67
2018-05-09T04:50:55.492Z,77.95
2018-05-09T04:51:55.554Z,77.67
2018-05-09T04:53:48.551Z,77.67
2018-05-09T04:54:48.612Z,77.95
2018-05-09T04:56:41.619Z,77.95
2018-05-09T04:57:41.670Z,77.48
2018-05-09T04:59:34.665Z,77.28
2018-05-09T05:00:34.724Z,77.76
2018-05-09T05:02:27.720Z,77.90
2018-05-09T05:03:27.778Z,77.70
2018-05-09T05:05:20.774Z,77.70
2018-05-09T05:06:20.840Z,78.09
2018-05-09T05:08:13.842Z,77.80
2018-05-09T05:09:13.897Z,78.38
2018-05-09T05:11:06.893Z,77.90
2018-05-09T05:12:06.951Z,77.90
2018-05-09T05:13:59.959Z,77.23
2018-05-09T05:15:00.011Z,78.19
2018-05-09T05:16:53.026Z,77.80
2018-05-09T05:17:53.069Z,77.70
2018-05-09T05:19:46.070Z,78.57
2018-05-09T05:20:46.124Z,78.13
2018-05-09T05:22:39.134Z,77.75
2018-05-09T05:23:39.183Z,77.84
2018-05-09T05:25:32.179Z,78.22
2018-05-09T05:26:32.264Z,77.94
2018-05-09T05:28:25.241Z,77.84
2018-05-09T05:29:25.299Z,77.65
2018-05-09T05:31:18.293Z,77.69
2018-05-09T05:32:18.356Z,77.69
2018-05-09T05:34:11.353Z,78.32
2018-05-09T05:35:11.416Z,78.17
2018-05-09T05:37:04.418Z,77.78
2018-05-09T05:38:04.473Z,78.84
2018-05-09T05:39:57.471Z,78.45
2018-05-09T05:40:57.531Z,77.31
2018-05-09T05:42:50.537Z,77.97
2018-05-09T05:43:50.588Z,78.30
2018-05-09T05:45:43.603Z,77.73
2018-05-09T05:46:43.641Z,77.73
2018-05-09T05:48:36.647Z,77.82
2018-05-09T05:49:36.703Z,78.20
2018-05-09T05:51:29.694Z,77.73
2018-05-09T05:52:29.754Z,78.49
2018-05-09T05:54:22.762Z,78.44
2018-05-09T05:55:22.812Z,77.95
2018-05-09T05:57:15.820Z,77.86
2018-05-09T05:58:15.866Z,77.86
2018-05-09T06:00:08.864Z,77.71
2018-05-09T06:01:08.929Z,77.23
2018-05-09T06:03:01.932Z,77.65
2018-05-09T06:04:01.990Z,78.23
2018-05-09T06:05:54.977Z,78.36
2018-05-09T06:06:55.043Z,78.69
2018-05-09T06:08:48.045Z,78.00
2018-05-09T06:09:48.099Z,76.98
2018-05-09T06:11:41.098Z,74.14
2018-05-09T06:12:41.163Z,66.82
2018-05-09T06:14:34.165Z,57.79
2018-05-09T06:15:34.226Z,54.94
2018-05-09T06:17:27.228Z,51.26
2018-05-09T06:18:27.280Z,49.76
2018-05-09T06:20:20.275Z,46.50
2018-05-09T06:21:20.340Z,45.45
2018-05-09T06:23:13.345Z,43.64
2018-05-09T06:24:13.501Z,43.37
2018-05-09T06:26:06.917Z,42.59
2018-05-09T06:27:06.978Z,42.30
2018-05-09T06:28:59.986Z,41.66
2018-05-09T06:30:00.048Z,40.55
2018-05-09T06:31:53.052Z,41.52
2018-05-09T06:32:53.127Z,41.46
2018-05-09T06:34:46.139Z,41.19
2018-05-09T06:35:46.201Z,40.31
2018-05-09T06:37:39.282Z,40.56
2018-05-09T06:38:39.278Z,40.64
2018-05-09T06:40:32.284Z,41.36
2018-05-09T06:41:32.383Z,40.48
2018-05-09T06:43:25.376Z,39.67
2018-05-09T06:44:25.452Z,37.71
2018-05-09T06:46:18.447Z,37.27
2018-05-09T06:47:18.522Z,38.82
2018-05-09T06:49:11.542Z,39.76
2018-05-09T06:50:11.605Z,40.17
2018-05-09T06:52:04.617Z,39.10
2018-05-09T06:53:04.692Z,39.16
2018-05-09T06:54:57.711Z,37.52
2018-05-09T06:55:57.775Z,36.93
2018-05-09T06:57:50.808Z,38.90
2018-05-09T06:58:50.864Z,39.10
2018-05-09T07:00:43.879Z,37.55
2018-05-09T07:01:43.954Z,37.93
2018-05-09T07:03:36.972Z,37.38
2018-05-09T07:04:37.041Z,37.41
2018-05-09T07:06:30.237Z,35.44
2018-05-09T07:07:30.134Z,34.08
2018-05-09T07:09:23.167Z,31.77
2018-05-09T07:10:23.223Z,33.00
2018-05-09T07:12:16.241Z,33.50
2018-05-09T07:13:16.317Z,33.09
2018-05-09T07:15:09.337Z,33.64
2018-05-09T07:16:09.407Z,33.79
2018-05-09T07:18:02.442Z,33.64
2018-05-09T07:19:02.501Z,33.65
2018-05-09T07:20:55.516Z,33.74
2018-05-09T07:21:55.594Z,32.89
2018-05-09T07:23:48.624Z,31.84
2018-05-09T07:24:48.688Z,32.81
2018-05-09T07:26:42.213Z,32.90
2018-05-09T07:27:42.292Z,32.37
2018-05-09T07:29:35.320Z,29.99
2018-05-09T07:30:35.389Z,30.08
2018-05-09T07:32:28.407Z,28.72
2018-05-09T07:33:28.501Z,28.96
2018-05-09T07:35:21.588Z,30.42
2018-05-09T07:36:21.579Z,31.13
2018-05-09T07:38:14.619Z,29.71
2018-05-09T07:39:14.679Z,28.95
2018-05-09T07:41:07.703Z,28.37
2018-05-09T07:42:07.827Z,27.34
2018-05-09T07:44:00.811Z,27.39
2018-05-09T07:45:00.882Z,26.53
2018-05-09T07:46:53.909Z,27.19
2018-05-09T07:47:54.082Z,26.71
2018-05-09T07:49:47.020Z,26.64
2018-05-09T07:50:47.083Z,26.62
2018-05-09T07:52:40.107Z,27.20
2018-05-09T07:53:40.186Z,26.73
2018-05-09T07:55:33.283Z,25.74
2018-05-09T07:56:33.297Z,26.78
2018-05-09T07:58:26.343Z,27.94
2018-05-09T07:59:26.398Z,27.06
2018-05-09T08:01:19.424Z,29.02
2018-05-09T08:02:19.507Z,28.45
2018-05-09T08:04:12.536Z,27.31
2018-05-09T08:05:12.611Z,27.23
2018-05-09T08:07:05.641Z,24.88
2018-05-09T08:08:05.719Z,24.20
2018-05-09T08:09:58.755Z,23.33
2018-05-09T08:10:58.823Z,23.24
2018-05-09T08:12:51.882Z,23.26
2018-05-09T08:13:51.933Z,22.08
2018-05-09T08:15:44.962Z,21.91
2018-05-09T08:16:45.036Z,22.00
2018-05-09T08:18:38.073Z,21.71
2018-05-09T08:19:38.146Z,21.00
2018-05-09T08:21:31.173Z,22.24
2018-05-09T08:22:31.253Z,23.11
2018-05-09T08:24:24.291Z,23.33
2018-05-09T08:25:24.363Z,23.24
2018-05-09T08:27:17.386Z,22.26
2018-05-09T08:28:17.467Z,22.16
2018-05-09T08:30:10.499Z,23.29
2018-05-09T08:31:10.575Z,24.38
2018-05-09T08:33:03.604Z,23.81
2018-05-09T08:34:03.683Z,24.60
2018-05-09T08:35:56.727Z,24.27
2018-05-09T08:36:56.794Z,24.17
2018-05-09T08:38:49.840Z,23.50
2018-05-09T08:39:49.905Z,24.46
2018-05-09T08:41:42.930Z,24.98
2018-05-09T08:42:43.012Z,24.29
2018-05-09T08:44:36.052Z,23.47
2018-05-09T08:45:36.122Z,24.08
2018-05-09T08:47:29.147Z,23.00
2018-05-09T08:48:29.230Z,23.13
2018-05-09T08:50:22.264Z,23.22
2018-05-09T08:51:22.338Z,23.70
2018-05-09T08:53:15.367Z,23.24
2018-05-09T08:54:15.447Z,22.06
2018-05-09T08:56:08.484Z,23.00
2018-05-09T08:57:08.559Z,22.50
2018-05-09T08:59:01.611Z,22.06
2018-05-09T09:00:01.681Z,22.89
2018-05-09T09:01:54.694Z,23.80
2018-05-09T09:02:54.777Z,23.61
2018-05-09T09:04:47.817Z,23.43
2018-05-09T09:05:47.889Z,23.44
2018-05-09T09:07:40.916Z,24.41
2018-05-09T09:08:41.000Z,23.43
2018-05-09T09:10:34.042Z,22.85
2018-05-09T09:11:34.117Z,22.37
2018-05-09T09:13:27.172Z,21.59
2018-05-09T09:14:27.227Z,21.78
2018-05-09T09:16:20.265Z,22.94
2018-05-09T09:17:20.339Z,22.91
2018-05-09T09:19:13.379Z,24.45
2018-05-09T09:20:13.461Z,25.21
2018-05-09T09:22:06.481Z,26.84
2018-05-09T09:23:06.563Z,28.77
2018-05-09T09:24:59.598Z,30.40
2018-05-09T09:25:59.671Z,30.26
2018-05-09T09:27:52.699Z,33.41
2018-05-09T09:28:52.863Z,34.67
2018-05-09T09:30:45.811Z,36.70
2018-05-09T09:31:45.883Z,35.53
2018-05-09T09:33:38.903Z,39.62
2018-05-09T09:34:38.978Z,37.38
2018-05-09T09:36:32.006Z,36.51
2018-05-09T09:37:32.071Z,36.70
2018-05-09T09:39:25.104Z,36.08
2018-05-09T09:40:25.167Z,37.83
2018-05-09T09:42:18.182Z,36.49
2018-05-09T09:43:18.253Z,38.24
2018-05-09T09:45:11.278Z,37.23
2018-05-09T09:46:11.343Z,37.13
2018-05-09T09:48:04.356Z,38.20
2018-05-09T09:49:04.431Z,37.81
2018-05-09T09:50:57.449Z,36.74
2018-05-09T09:51:57.517Z,35.94
2018-05-09T09:53:50.534Z,36.53
2018-05-09T09:54:50.606Z,37.87
2018-05-09T09:56:43.628Z,36.90
2018-05-09T09:57:43.696Z,38.07
2018-05-09T09:59:36.730Z,38.17
2018-05-09T10:00:36.783Z,39.24
2018-05-09T10:02:29.790Z,39.24
2018-05-09T10:03:29.864Z,39.31
2018-05-09T10:05:22.886Z,39.41
2018-05-09T10:06:22.950Z,40.58
2018-05-09T10:08:15.959Z,37.19
2018-05-09T10:09:16.031Z,37.68
2018-05-09T10:11:09.057Z,38.67
2018-05-09T10:12:09.122Z,38.75
2018-05-09T10:14:02.134Z,37.19
2018-05-09T10:15:02.208Z,35.93
2018-05-09T10:16:55.218Z,35.91
2018-05-09T10:17:55.283Z,35.31
2018-05-09T10:19:48.310Z,37.18
2018-05-09T10:20:48.363Z,38.07
2018-05-09T10:22:41.376Z,38.17
2018-05-09T10:23:41.446Z,37.70
2018-05-09T10:25:34.466Z,35.53
2018-05-09T10:26:34.531Z,35.13
2018-05-09T10:28:27.538Z,37.26
2018-05-09T10:29:27.612Z,38.73
2018-05-09T10:31:20.694Z,35.13
2018-05-09T10:32:20.693Z,34.84
2018-05-09T10:34:13.705Z,38.54
2018-05-09T10:35:13.776Z,36.00
2018-05-09T10:37:06.792Z,35.60
2018-05-09T10:38:06.858Z,36.96
2018-05-09T10:39:59.882Z,37.18
2018-05-09T10:40:59.934Z,35.71
2018-05-09T10:42:52.945Z,35.99
2018-05-09T10:43:53.016Z,35.80
2018-05-09T10:45:46.032Z,35.99
2018-05-09T10:46:46.096Z,36.49
2018-05-09T10:48:39.103Z,35.61
2018-05-09T10:49:39.179Z,34.35
2018-05-09T10:51:32.191Z,35.91
2018-05-09T10:52:32.254Z,35.52
2018-05-09T10:54:25.281Z,35.03
2018-05-09T10:55:25.334Z,34.43
2018-05-09T10:57:18.385Z,35.80
2018-05-09T10:58:18.417Z,36.77
2018-05-09T11:00:11.443Z,35.52
2018-05-09T11:01:11.499Z,34.64
2018-05-09T11:03:04.503Z,35.13
2018-05-09T11:04:04.573Z,35.91
2018-05-09T11:05:57.587Z,34.35
2018-05-09T11:06:57.651Z,33.28
2018-05-09T11:08:50.689Z,33.95
2018-05-09T11:09:50.728Z,36.08
2018-05-09T11:11:43.743Z,34.24
2018-05-09T11:12:43.807Z,35.41
2018-05-09T11:14:36.822Z,34.05
2018-05-09T11:15:36.907Z,35.02
2018-05-09T11:17:29.916Z,35.31
2018-05-09T11:18:29.971Z,35.41
2018-05-09T11:20:22.994Z,35.31
2018-05-09T11:21:23.048Z,35.50
2018-05-09T11:23:16.059Z,36.10
2018-05-09T11:24:16.140Z,35.13
2018-05-09T11:26:09.648Z,34.45
2018-05-09T11:27:09.712Z,35.42
2018-05-09T11:29:02.723Z,33.86
2018-05-09T11:30:02.788Z,34.55
2018-05-09T11:31:55.802Z,33.86
2018-05-09T11:32:55.865Z,34.27
2018-05-09T11:34:48.879Z,33.58
2018-05-09T11:35:48.944Z,33.59
2018-05-09T11:37:41.963Z,33.58
2018-05-09T11:38:42.018Z,32.70
2018-05-09T11:40:35.049Z,33.95
2018-05-09T11:41:35.099Z,33.36
2018-05-09T11:43:28.113Z,33.46
2018-05-09T11:44:28.186Z,33.48
2018-05-09T11:46:21.335Z,34.53
2018-05-09T11:47:21.272Z,35.60
2018-05-09T11:49:14.279Z,36.49
2018-05-09T11:50:14.349Z,35.91
2018-05-09T11:52:07.363Z,34.33
2018-05-09T11:53:07.454Z,35.60
2018-05-09T11:55:00.434Z,34.70
2018-05-09T11:56:00.502Z,36.36
2018-05-09T11:57:53.516Z,34.90
2018-05-09T11:58:53.578Z,34.90
2018-05-09T12:00:46.597Z,35.29
2018-05-09T12:01:46.654Z,35.88
2018-05-09T12:03:39.661Z,35.80
2018-05-09T12:04:39.733Z,35.60
2018-05-09T12:06:32.747Z,35.00
2018-05-09T12:07:32.808Z,36.08
2018-05-09T12:09:25.811Z,35.11
2018-05-09T12:10:25.906Z,34.63
2018-05-09T12:12:18.895Z,35.02
2018-05-09T12:13:18.958Z,35.80
2018-05-09T12:15:11.965Z,35.39
2018-05-09T12:16:12.043Z,35.70
2018-05-09T12:18:05.047Z,34.92
2018-05-09T12:19:05.108Z,35.41
2018-05-09T12:20:58.128Z,36.20
2018-05-09T12:21:58.184Z,36.10
2018-05-09T12:23:51.192Z,35.33
2018-05-09T12:24:51.263Z,35.25
2018-05-09T12:26:44.785Z,35.13
2018-05-09T12:27:44.850Z,34.94
2018-05-09T12:29:37.855Z,36.98
2018-05-09T12:30:37.926Z,36.88
2018-05-09T12:32:30.944Z,36.22
2018-05-09T12:33:31.002Z,35.53
2018-05-09T12:35:24.009Z,34.94
2018-05-09T12:36:24.156Z,35.80
2018-05-09T12:38:17.093Z,36.49
2018-05-09T12:39:17.157Z,36.00
2018-05-09T12:41:10.186Z,37.27
2018-05-09T12:42:10.233Z,35.81
2018-05-09T12:44:03.248Z,35.91
2018-05-09T12:45:03.322Z,34.94
2018-05-09T12:46:56.328Z,36.02
2018-05-09T12:47:56.389Z,35.63
2018-05-09T12:49:49.398Z,34.17
2018-05-09T12:50:49.466Z,33.86
2018-05-09T12:52:42.483Z,35.23
2018-05-09T12:53:42.545Z,34.84
2018-05-09T12:55:35.551Z,35.33
2018-05-09T12:56:35.620Z,35.71
2018-05-09T12:58:28.635Z,37.29
2018-05-09T12:59:28.700Z,37.27
2018-05-09T13:01:21.722Z,36.10
2018-05-09T13:02:21.776Z,35.81
2018-05-09T13:04:14.785Z,36.10
2018-05-09T13:05:14.856Z,35.99
2018-05-09T13:07:07.868Z,36.47
2018-05-09T13:08:07.941Z,36.47
2018-05-09T13:10:00.941Z,36.77
2018-05-09T13:11:01.007Z,36.77
2018-05-09T13:12:54.021Z,37.64
2018-05-09T13:13:54.085Z,37.35
2018-05-09T13:15:47.093Z,36.94
2018-05-09T13:16:47.178Z,37.14
2018-05-09T13:18:40.173Z,37.34
2018-05-09T13:19:40.240Z,37.04
2018-05-09T13:21:33.261Z,37.43
2018-05-09T13:22:33.318Z,37.72
2018-05-09T13:24:26.321Z,37.14
2018-05-09T13:25:26.392Z,36.85
2018-05-09T13:27:19.406Z,37.22
2018-05-09T13:28:19.469Z,37.51
2018-05-09T13:30:12.476Z,36.94
2018-05-09T13:31:12.548Z,36.94
2018-05-09T13:33:05.576Z,36.87
2018-05-09T13:34:05.706Z,36.87
2018-05-09T13:35:58.637Z,35.52
2018-05-09T13:36:58.704Z,35.91
2018-05-09T13:38:51.716Z,36.00
2018-05-09T13:39:51.805Z,35.33
2018-05-09T13:41:44.807Z,38.24
2018-05-09T13:42:44.858Z,36.41
2018-05-09T13:44:37.863Z,34.86
2018-05-09T13:45:37.932Z,35.53
2018-05-09T13:47:30.951Z,36.49
2018-05-09T13:48:31.010Z,36.69
2018-05-09T13:50:24.017Z,36.79
2018-05-09T13:51:24.090Z,35.33
2018-05-09T13:53:17.105Z,35.03
2018-05-09T13:54:17.167Z,35.33
2018-05-09T13:56:10.179Z,34.94
2018-05-09T13:57:10.246Z,34.17
2018-05-09T13:59:03.257Z,34.19
2018-05-09T14:00:03.322Z,34.00
2018-05-09T14:01:56.339Z,34.76
2018-05-09T14:02:56.404Z,34.27
2018-05-09T14:04:49.412Z,34.97
2018-05-09T14:05:49.479Z,32.82
2018-05-09T14:07:42.498Z,34.27
2018-05-09T14:08:42.561Z,33.98
2018-05-09T14:10:35.563Z,34.29
2018-05-09T14:11:35.634Z,34.88
2018-05-09T14:13:28.652Z,34.58
2018-05-09T14:14:28.713Z,34.68
2018-05-09T14:16:21.720Z,35.73
2018-05-09T14:17:21.795Z,36.32
2018-05-09T14:19:14.811Z,35.81
2018-05-09T14:20:14.873Z,35.91
2018-05-09T14:22:07.890Z,36.00
2018-05-09T14:23:07.953Z,36.30
2018-05-09T14:25:00.954Z,35.91
2018-05-09T14:26:01.027Z,35.61
2018-05-09T14:27:54.054Z,35.71
2018-05-09T14:28:54.105Z,36.40
2018-05-09T14:30:47.112Z,36.69
2018-05-09T14:31:47.179Z,36.88
2018-05-09T14:33:40.196Z,36.20
2018-05-09T14:34:40.261Z,35.21
2018-05-09T14:36:33.264Z,35.52
2018-05-09T14:37:33.335Z,35.42
2018-05-09T14:39:26.349Z,35.63
2018-05-09T14:40:26.411Z,34.56
2018-05-09T14:42:19.440Z,35.15
2018-05-09T14:43:19.494Z,35.15
2018-05-09T14:45:12.499Z,35.63
2018-05-09T14:46:12.570Z,34.74
2018-05-09T14:48:05.673Z,35.83
2018-05-09T14:49:05.647Z,35.52
2018-05-09T14:50:58.657Z,36.59
2018-05-09T14:51:58.726Z,36.02
2018-05-09T14:53:52.248Z,36.49
2018-05-09T14:54:52.331Z,36.20
2018-05-09T14:56:45.329Z,36.59
2018-05-09T14:57:45.381Z,37.18
2018-05-09T14:59:38.395Z,36.57
2018-05-09T15:00:38.456Z,37.26
2018-05-09T15:02:31.483Z,37.26
2018-05-09T15:03:31.532Z,38.13
2018-05-09T15:05:24.540Z,37.84
2018-05-09T15:06:24.626Z,38.32
2018-05-09T15:08:17.623Z,39.03
2018-05-09T15:09:17.686Z,39.59
2018-05-09T15:11:10.693Z,40.37
2018-05-09T15:12:10.764Z,40.17
2018-05-09T15:14:03.862Z,39.88
2018-05-09T15:15:03.841Z,39.00
2018-05-09T15:16:56.848Z,39.37
2018-05-09T15:17:56.923Z,40.25
2018-05-09T15:19:49.934Z,41.14
2018-05-09T15:20:50.001Z,40.17
2018-05-09T15:22:43.010Z,39.49
2018-05-09T15:23:43.072Z,40.47
2018-05-09T15:25:36.088Z,39.76
2018-05-09T15:26:36.152Z,38.98
2018-05-09T15:28:29.413Z,38.98
2018-05-09T15:29:29.321Z,39.76
2018-05-09T15:31:22.326Z,40.66
2018-05-09T15:32:22.394Z,39.78
2018-05-09T15:34:15.423Z,39.29
2018-05-09T15:35:15.484Z,39.29
2018-05-09T15:37:09.000Z,38.71
2018-05-09T15:38:09.068Z,38.62
2018-05-09T15:40:02.092Z,38.60
2018-05-09T15:41:02.162Z,38.40
2018-05-09T15:42:55.181Z,40.15
2018-05-09T15:43:55.230Z,40.83
2018-05-09T15:45:48.233Z,40.93
2018-05-09T15:46:48.302Z,40.54
2018-05-09T15:48:41.321Z,39.76
2018-05-09T15:49:41.384Z,40.34
2018-05-09T15:51:34.398Z,40.64
2018-05-09T15:52:34.472Z,40.34
2018-05-09T15:54:27.483Z,39.96
2018-05-09T15:55:27.545Z,39.76
2018-05-09T15:57:20.551Z,39.76
2018-05-09T15:58:20.622Z,39.67
2018-05-09T16:00:13.635Z,38.98
2018-05-09T16:01:13.699Z,39.98
2018-05-09T16:03:06.727Z,40.06
2018-05-09T16:04:06.773Z,39.86
2018-05-09T16:05:59.786Z,40.17
2018-05-09T16:06:59.855Z,40.08
2018-05-09T16:08:52.869Z,40.66
2018-05-09T16:09:52.932Z,40.37
2018-05-09T16:11:45.939Z,40.54
2018-05-09T16:12:46.026Z,40.15
2018-05-09T16:14:39.028Z,40.64
2018-05-09T16:15:39.085Z,40.93
2018-05-09T16:17:32.092Z,41.90
2018-05-09T16:18:32.163Z,41.83
2018-05-09T16:20:25.182Z,41.13
2018-05-09T16:21:25.249Z,41.03
2018-05-09T16:23:18.261Z,41.71
2018-05-09T16:24:18.322Z,41.61
2018-05-09T16:26:11.337Z,41.39
2018-05-09T16:27:11.396Z,41.49
2018-05-09T16:29:04.412Z,41.20
2018-05-09T16:30:04.476Z,41.69
2018-05-09T16:31:57.488Z,41.49
2018-05-09T16:32:57.560Z,41.69
2018-05-09T16:34:50.575Z,41.78
2018-05-09T16:35:50.640Z,42.56
2018-05-09T16:37:43.643Z,41.69
2018-05-09T16:38:43.710Z,42.08
2018-05-09T16:40:36.722Z,41.69
2018-05-09T16:41:36.785Z,41.49
2018-05-09T16:43:29.802Z,41.78
2018-05-09T16:44:29.861Z,41.10
2018-05-09T16:46:22.869Z,41.39
2018-05-09T16:47:22.937Z,41.47
2018-05-09T16:49:15.957Z,41.67
2018-05-09T16:50:16.021Z,41.86
2018-05-09T16:52:09.027Z,41.47
2018-05-09T16:53:09.107Z,41.67
2018-05-09T16:55:02.113Z,41.77
2018-05-09T16:56:02.171Z,41.86
2018-05-09T16:57:55.178Z,43.02
2018-05-09T16:58:55.252Z,42.64
2018-05-09T17:00:48.263Z,42.35
2018-05-09T17:01:48.325Z,41.86
2018-05-09T17:03:41.341Z,42.64
2018-05-09T17:04:41.401Z,42.83
2018-05-09T17:06:34.419Z,42.35
2018-05-09T17:07:34.474Z,42.44
2018-05-09T17:09:27.500Z,42.74
2018-05-09T17:10:27.564Z,43.32
2018-05-09T17:12:20.571Z,43.51
2018-05-09T17:13:20.636Z,42.83
2018-05-09T17:15:13.651Z,43.32
2018-05-09T17:16:13.713Z,43.51
2018-05-09T17:18:06.721Z,43.71
2018-05-09T17:19:06.798Z,43.78
2018-05-09T17:20:59.804Z,43.20
2018-05-09T17:21:59.866Z,43.68
2018-05-09T17:23:53.394Z,44.07
2018-05-09T17:24:53.587Z,43.98
2018-05-09T17:26:46.454Z,44.27
2018-05-09T17:27:46.522Z,44.37
2018-05-09T17:29:39.543Z,44.46
2018-05-09T17:30:39.618Z,44.17
2018-05-09T17:32:32.613Z,45.04
2018-05-09T17:33:32.704Z,45.12
2018-05-09T17:35:25.698Z,44.44
2018-05-09T17:36:25.763Z,44.24
2018-05-09T17:38:18.767Z,44.24
2018-05-09T17:39:18.833Z,44.24
2018-05-09T17:41:11.851Z,45.12
2018-05-09T17:42:11.909Z,45.12
2018-05-09T17:44:04.921Z,45.31
2018-05-09T17:45:04.981Z,45.80
2018-05-09T17:46:57.992Z,45.89
2018-05-09T17:47:58.055Z,46.86
2018-05-09T17:49:51.074Z,46.36
2018-05-09T17:50:51.128Z,46.84
2018-05-09T17:52:44.129Z,46.84
2018-05-09T17:53:44.201Z,47.13
2018-05-09T17:55:37.723Z,46.84
2018-05-09T17:56:37.780Z,47.33
2018-05-09T17:58:30.832Z,47.52
2018-05-09T17:59:30.858Z,47.72
2018-05-09T18:01:23.874Z,47.91
2018-05-09T18:02:23.931Z,47.79
2018-05-09T18:04:16.944Z,48.08
2018-05-09T18:05:17.021Z,48.08
2018-05-09T18:07:10.533Z,48.47
2018-05-09T18:08:10.591Z,48.27
2018-05-09T18:10:03.631Z,48.85
2018-05-09T18:11:03.689Z,48.76
2018-05-09T18:12:56.723Z,49.15
2018-05-09T18:13:56.778Z,49.15
2018-05-09T18:15:49.798Z,48.83
2018-05-09T18:16:49.841Z,50.48
2018-05-09T18:18:42.848Z,50.48
2018-05-09T18:19:42.919Z,50.38
2018-05-09T18:21:35.934Z,50.77
2018-05-09T18:22:36.002Z,50.77
2018-05-09T18:24:29.017Z,50.87
2018-05-09T18:25:29.073Z,51.54
2018-05-09T18:27:22.074Z,51.64
2018-05-09T18:28:22.144Z,52.90
2018-05-09T18:30:15.151Z,52.00
2018-05-09T18:31:15.213Z,52.42
2018-05-09T18:33:08.218Z,53.75
2018-05-09T18:34:08.286Z,53.26